Sonic Adventure (DX): Overall Rankings

Records: Times | Rings | Scores | Races | Bosses | Freestyle
Leaders: Times | Rings | Scores | Races | Bosses | Freestyle | Overall
Rank Player Percent Points Date
1 Gamepro011 97.7% 404 12-03-20
2 Sonicspeedruner 97.7% 415 12-03-20
3 DarkPolarNight 96.3% 656 12-03-20
4 Jawzun 92.8% 1306 12-03-20
5 Dashjump 91.2% 1585 12-03-20
6 Avento128bits 89.3% 1939 12-03-20
7 DarkspinesSonic 89.2% 1946 12-03-20
8 ike6252 89.0% 1991 12-03-20
9 F-Man 87.1% 2329 12-03-20
10 Coolfansonic 87.0% 2348 12-03-20
11 TheRealShadnic 84.7% 2762 12-03-20
12 HyperSonic7701 83.8% 2933 12-03-20
13 yoshifan 82.2% 3228 12-03-20
14 Nim 81.9% 3276 12-03-20
15 frankoredstrato 81.7% 3318 12-03-20
16 francisco 80.7% 3492 12-03-20
17 Marth 80.4% 3543 12-03-20
18 InferSaime 79.3% 3755 12-03-20
19 PfoSonic 78.7% 3851 12-03-20
20 Paragod 78.3% 3924 12-03-20
21 THC98 77.4% 4087 12-03-20
22 Stefan 75.1% 4515 12-03-20
23 Dekuboy 73.9% 4728 12-03-20
24 RPGnutter 73.0% 4884 12-03-20
25 bertin 72.8% 4923 12-03-20
26 sonicam 70.8% 5287 12-03-20
27 drminus 69.2% 5579 12-03-20
28 chaos shadow 68.8% 5658 12-03-20
29 chainchump 65.4% 6270 12-03-20
30 Combo 64.8% 6375 12-03-20
31 SkyLights 63.6% 6593 12-03-20
32 xXMegaManXx 62.0% 6877 12-03-20
33 Diamond 61.7% 6939 12-03-20
34 Auriman1 59.5% 7331 12-03-20
34 GerbilSoft 59.5% 7331 12-03-20
36 OmegaDJ 59.4% 7353 12-03-20
37 magnum12 58.7% 7487 12-03-20
38 Thorn 56.5% 7892 12-03-20
39 P1 Pause 56.2% 7942 12-03-20
40 mike89 55.1% 8142 12-03-20
41 Dave Cramer 53.3% 8466 12-03-20
42 Groudon199 53.1% 8507 12-03-20
43 Parax 52.6% 8591 12-03-20
44 Shadow Jacky 52.0% 8692 12-03-20
45 SPVLABS 52.0% 8693 12-03-20
46 Zurggriff 48.6% 9321 12-03-20
47 Psymar 47.0% 9605 12-03-20
48 Arch 46.2% 9756 12-03-20
49 Niczur 46.0% 9790 12-03-20
50 CoEmpathy 45.5% 9875 12-03-20
51 Chao_Fan 45.4% 9906 12-03-20
52 mauserman 44.8% 10013 12-03-20
53 Quartz 44.1% 10130 12-03-20
54 teamblackarms 43.5% 10243 12-03-20
55 Psyknux 42.8% 10364 12-03-20
56 James_Bertolli 42.3% 10466 12-03-20
57 Cyan Ryan 42.3% 10468 12-03-20
58 NintenDan 41.9% 10525 12-03-20
59 Turbos 41.3% 10642 12-03-20
60 Webber3000 41.3% 10645 12-03-20
61 Ring Rush 41.1% 10676 12-03-20
62 Fr3nZy 41.0% 10697 12-03-20
63 Cream147 41.0% 10701 12-03-20
64 Siavash Tazari 40.7% 10748 12-03-20
64 videogamemaster777 40.7% 10748 12-03-20
66 buddychaos0415 40.1% 10857 12-03-20
67 SadisticMystic 39.6% 10953 12-03-20
68 ethmar 39.1% 11032 12-03-20
69 eggFL 38.7% 11117 12-03-20
70 Calfd 38.0% 11246 12-03-20
71 SB737 37.1% 11404 12-03-20
72 supersonic465 36.7% 11478 12-03-20
73 supersonicfan 36.1% 11592 12-03-20
74 FuzZerd 34.8% 11812 12-03-20
75 Aitamen 34.5% 11883 12-03-20
76 BigAL49 34.0% 11958 12-03-20
77 elecmouse101 34.0% 11968 12-03-20
78 danieldude 33.9% 11977 12-03-20
79 Austinf 33.3% 12089 12-03-20
80 metanightmare22 32.8% 12178 12-03-20
81 dabestgamer 32.5% 12242 12-03-20
82 MiStEr_ShAoLiN 32.2% 12289 12-03-20
83 Andrea Ritsu 31.5% 12424 12-03-20
84 itsPersonnal 31.2% 12473 12-03-20
85 Cybrax 30.4% 12623 12-03-20
86 JamminX42 30.4% 12625 12-03-20
87 SilvertheAlmighty 30.3% 12638 12-03-20
88 WeegeeZV 30.2% 12650 12-03-20
89 Mastakirby 29.9% 12708 12-03-20
90 VMU Player Banned 28.4% 12984 12-03-20
91 Staf 27.9% 13068 12-03-20
92 Omega Rafael Santos 27.9% 13081 12-03-20
93 The T 27.5% 13150 12-03-20
94 EngiNerd 27.3% 13183 12-03-20
95 lordmetalsonic 26.9% 13258 12-03-20
96 Hipertails12 26.5% 13325 12-03-20
97 welldooder64 26.2% 13375 12-03-20
98 GreatStar 26.0% 13413 12-03-20
99 The Great Lord Mick 25.9% 13438 12-03-20
100 Sondow 25.7% 13466 12-03-20
101 LinksDarkArrows 25.6% 13488 12-03-20
102 Skylace 24.6% 13664 12-03-20
103 a_moustache 23.7% 13836 12-03-20
104 Rolken 23.2% 13926 12-03-20
105 Spinballwizard 21.5% 14235 12-03-20
106 Kogen Player Banned 21.5% 14237 12-03-20
107 Xia 21.5% 14239 12-03-20
108 f0rever_zer0 21.1% 14309 12-03-20
109 Twilisailor 21.0% 14315 12-03-20
110 Don 20.9% 14335 12-03-20
111 Miles9999 20.9% 14351 12-03-20
112 Cutiefox 20.8% 14353 12-03-20
113 Game_Complete 20.7% 14373 12-03-20
114 iden1 20.6% 14395 12-03-20
115 andres430 20.2% 14464 12-03-20
116 Cruizer 20.0% 14513 12-03-20
117 iSonicKid2K 19.9% 14528 12-03-20
118 SADXTryHard 19.5% 14588 12-03-20
119 GarnetPrincess 19.2% 14657 12-03-20
120 N 18.9% 14705 12-03-20
121 AxlThunder 18.6% 14756 12-03-20
122 knuckles_sonic8 18.4% 14804 12-03-20
123 Team_Yoshi 17.9% 14893 12-03-20
124 KinkyCadence 17.8% 14904 12-03-20
125 The Knuckles Chao 17.7% 14920 12-03-20
126 Termon 17.5% 14964 12-03-20
127 FoxBoy 17.3% 14998 12-03-20
127 LittleBigness 17.3% 14998 12-03-20
129 SonicWinDX 17.2% 15013 12-03-20
130 Drakodan 16.5% 15146 12-03-20
131 Sonic Singularity 15.5% 15326 12-03-20
132 Pokemonmaster888 15.3% 15361 12-03-20
133 paulie9990 14.7% 15459 12-03-20
134 SilverSonic 14.2% 15564 12-03-20
135 MPit08 14.1% 15577 12-03-20
136 Mo Player Banned 13.8% 15628 12-03-20
137 koinu93 13.6% 15666 12-03-20
138 Cod4Scopes 13.2% 15738 12-03-20
139 HyperSonic64 13.2% 15748 12-03-20
140 Jerzia 13.1% 15757 12-03-20
141 booo95 13.0% 15767 12-03-20
141 Modest 13.0% 15767 12-03-20
143 Hunters13 13.0% 15774 12-03-20
144 Chawkk 12.9% 15799 12-03-20
145 SuperSonic101 12.7% 15832 12-03-20
146 Maxinfamily 12.6% 15850 12-03-20
147 R3FR4G 12.5% 15868 12-03-20
148 PsyBorg 12.4% 15890 12-03-20
149 LilZero 12.2% 15916 12-03-20
150 Kanimayo_Jp 12.2% 15918 12-03-20
151 Flying Fox 12.2% 15921 12-03-20
152 BrokenArthritis 12.1% 15947 12-03-20
153 Therio 11.6% 16021 12-03-20
154 sonicspeed 11.5% 16043 12-03-20
155 douglas 11.4% 16071 12-03-20
156 SonicAD 11.4% 16074 12-03-20
157 Matt_TY 11.1% 16122 12-03-20
157 thewaytodawnnn 11.1% 16122 12-03-20
159 ModifiedMonkee 10.9% 16150 12-03-20
160 Cooljay 10.5% 16226 12-03-20
161 SuperBlitzCraig 10.4% 16252 12-03-20
162 joecoolgames 10.4% 16253 12-03-20
163 SeaWolf 10.3% 16258 12-03-20
164 videogamer1014 10.1% 16304 12-03-20
165 AC-Tygo 9.9% 16340 12-03-20
166 welshmoose05 9.8% 16356 12-03-20
167 OddCook 9.6% 16388 12-03-20
168 crazy1993 9.5% 16404 12-03-20
169 TFEC Headshot 9.5% 16409 12-03-20
170 Mariobutch 9.4% 16435 12-03-20
171 Mcshuggets 9.4% 16436 12-03-20
172 niscool 9.1% 16488 12-03-20
173 Irregular Zero 9.0% 16498 12-03-20
174 nuckrieg 8.9% 16513 12-03-20
175 Shadowthegreat 8.7% 16553 12-03-20
176 superjupi 8.7% 16555 12-03-20
177 SirTobbii 8.7% 16563 12-03-20
178 Powerjohn25 8.4% 16607 12-03-20
179 sonamyfan666 8.4% 16608 12-03-20
180 iarebored 8.3% 16620 12-03-20
181 SaviourDC 8.3% 16628 12-03-20
182 SonicKnuckles 8.3% 16635 12-03-20
183 Badlex727 8.2% 16644 12-03-20
184 Werey 8.1% 16666 12-03-20
185 adf 7.9% 16694 12-03-20
186 Megaman EXE565 7.6% 16746 12-03-20
187 ArcticDragon 7.6% 16764 12-03-20
188 Platformer 7.3% 16813 12-03-20
189 Zethor 7.2% 16824 12-03-20
190 timpkmn89 7.2% 16825 12-03-20
191 Swift Hobo 7.1% 16838 12-03-20
192 FocusSight64 7.1% 16840 12-03-20
193 Vicklaw 7.0% 16855 12-03-20
194 wheatrich 7.0% 16862 12-03-20
195 Rickyman48 6.9% 16888 12-03-20
196 KitsuneYamaro 6.7% 16911 12-03-20
197 Sm4sh 6.7% 16925 12-03-20
198 Triseena 6.5% 16951 12-03-20
199 CyberShadow 6.3% 16990 12-03-20
199 Starlight Sable 6.3% 16990 12-03-20
201 Destroyer121121 6.3% 16991 12-03-20
202 slade23 6.3% 16994 12-03-20
203 dShadow 6.2% 17011 12-03-20
204 IsisDazs 6.1% 17024 12-03-20
205 BlankTH 5.9% 17064 12-03-20
206 Monkeh 5.8% 17090 12-03-20
207 SonicU260 5.6% 17123 12-03-20
208 Richied 5.5% 17134 12-03-20
209 DaDude 5.5% 17141 12-03-20
210 Swinkly 5.5% 17142 12-03-20
211 Crispian 5.5% 17144 12-03-20
212 sonicd5 5.4% 17155 12-03-20
213 Zip 5.3% 17165 12-03-20
214 VeritasDL 5.1% 17202 12-03-20
215 tal39h 5.0% 17224 12-03-20
216 ALundstrom10 4.9% 17236 12-03-20
217 Kirbymon30 4.9% 17239 12-03-20
218 soniccoloursunleashed 4.8% 17272 12-03-20
219 Drflash55 4.7% 17285 12-03-20
220 Bass 4.6% 17301 12-03-20
221 Yish 4.5% 17313 12-03-20
222 neaolas 4.5% 17317 12-03-20
223 zapp 4.5% 17321 12-03-20
224 UninspiredUsername 4.4% 17328 12-03-20
225 Sonicsuperstar1 4.4% 17333 12-03-20
226 superiorsonic 4.4% 17336 12-03-20
227 gamefreak1292 4.3% 17348 12-03-20
228 Sora_yx 4.2% 17379 12-03-20
229 Chaos_Overlord 4.0% 17413 12-03-20
230 TakaRikka 3.9% 17427 12-03-20
231 Valfore 3.9% 17435 12-03-20
232 Dage4Aquatic 3.8% 17451 12-03-20
233 ShinigamiMachine 3.7% 17461 12-03-20
234 Regano1000 3.6% 17481 12-03-20
235 MK 3.5% 17494 12-03-20
236 Ace747 3.5% 17507 12-03-20
237 Jua Rever 3.3% 17538 12-03-20
238 Illidan 3.1% 17578 12-03-20
239 Venick409 3.1% 17579 12-03-20
240 HHNNBBHHN 3.0% 17581 12-03-20
241 Brian_pso 3.0% 17585 12-03-20
242 nman36 3.0% 17589 12-03-20
242 Sithwarrior26 3.0% 17589 12-03-20
244 Egor305 2.8% 17617 12-03-20
245 ArthurVGCP 2.8% 17619 12-03-20
245 ingx24 2.8% 17619 12-03-20
247 TheChaosEmeraIds 2.8% 17620 12-03-20
248 SkyBon 2.8% 17630 12-03-20
249 Nickson98 2.8% 17631 12-03-20
250 dekki1234 2.7% 17637 12-03-20
250 FSSRandomvids 2.7% 17637 12-03-20
252 Fozer 2.7% 17653 12-03-20
253 sonic29887 2.6% 17657 12-03-20
254 Colomb_30 2.6% 17665 12-03-20
255 TheUltraBlur 2.6% 17666 12-03-20
256 Aiko 2.6% 17668 12-03-20
257 1stKirbyever 2.5% 17675 12-03-20
258 TimTH 2.4% 17694 12-03-20
259 Th4tN1nj4Turtl3 2.3% 17720 12-03-20
260 Cort_pso 2.2% 17726 12-03-20
261 Doom-9 2.2% 17733 12-03-20
262 ieatatsonic 2.2% 17736 12-03-20
263 Mariosonic15 2.1% 17746 12-03-20
264 MStitomix 2.1% 17756 12-03-20
265 HermitHelmet 2.0% 17762 12-03-20
266 arcfx1985 2.0% 17765 12-03-20
267 SuperSonic71087 2.0% 17776 12-03-20
268 Got4n 1.9% 17781 12-03-20
269 Artie 1.9% 17783 12-03-20
270 Questionguy555 1.9% 17789 12-03-20
271 Jose_15 1.9% 17791 12-03-20
272 djmat 1.8% 17806 12-03-20
273 SuperSonicfan9595 1.8% 17810 12-03-20
274 sonicandamy Player Banned 1.7% 17829 12-03-20
275 LancexExWx 1.7% 17834 12-03-20
276 Paixii 1.6% 17837 12-03-20
277 son1cgu1tar 1.6% 17841 12-03-20
278 Heroes_Hater 1.6% 17851 12-03-20
279 BallzeH 1.5% 17858 12-03-20
280 Jamixesa 1.5% 17862 12-03-20
281 Mankster101 1.5% 17865 12-03-20
282 BecauseWarAnvil 1.4% 17871 12-03-20
283 Xandre69 1.4% 17872 12-03-20
284 Crydio 1.4% 17880 12-03-20
284 Shanekilz 1.4% 17880 12-03-20
286 SpiritDragon1995 1.4% 17883 12-03-20
287 MarewBFN 1.3% 17897 12-03-20
288 stanski 1.3% 17900 12-03-20
289 Sonique Hedgehog 1.3% 17905 12-03-20
290 Blue Infamy 1.2% 17916 12-03-20
291 p0ker 1.2% 17917 12-03-20
292 ErrortheCucco 1.1% 17927 12-03-20
293 Arthas 1.1% 17930 12-03-20
293 Rikum22 1.1% 17930 12-03-20
295 sonic1001 1.1% 17938 12-03-20
296 AJSIV 1.0% 17944 12-03-20
297 syco1098 1.0% 17945 12-03-20
298 Sonic the Hedgehod16 1.0% 17948 12-03-20
298 WingedInsignia 1.0% 17948 12-03-20
300 IDGeek121 1.0% 17949 12-03-20
301 ASINISTERTACO 1.0% 17957 12-03-20
302 sonicfan9 1.0% 17960 12-03-20
303 themachoman202 0.9% 17972 12-03-20
304 BlackArmsShadow 0.9% 17973 12-03-20
305 shadowblast63 Player Banned 0.8% 17980 12-03-20
306 Fivavoa 0.8% 17981 12-03-20
307 Ben1502 0.8% 17983 12-03-20
307 Greham Adelphis 0.8% 17983 12-03-20
307 Mr. Jones 0.8% 17983 12-03-20
310 MastaToken 0.8% 17984 12-03-20
310 TommyeAsY 0.8% 17984 12-03-20
312 darkstarblaze 0.8% 17985 12-03-20
313 ptorflaxendrosis 0.8% 17991 12-03-20
314 FlandreScarlet9999vr 0.8% 17993 12-03-20
314 Gvozdevik 0.8% 17993 12-03-20
316 Knuckles 0.8% 17996 12-03-20
316 Zeldocto 0.8% 17996 12-03-20
318 BeeAwwb 0.7% 18001 12-03-20
319 KaM Mark MaK 0.7% 18004 12-03-20
320 ShadouZaHejjihoggu 0.7% 18007 12-03-20
321 Sonic The Star 0.6% 18016 12-03-20
322 darkersupershadic 0.6% 18017 12-03-20
323 Sogeking 0.6% 18018 12-03-20
324 Sonic62 0.6% 18020 12-03-20
325 Sarger001 0.6% 18024 12-03-20
325 SonicK100 0.6% 18024 12-03-20
327 dragondragon18 0.6% 18025 12-03-20
327 Grady219 0.6% 18025 12-03-20
329 Shadygamerfreak 0.6% 18027 12-03-20
330 Jawaah 0.6% 18030 12-03-20
331 Antek 0.5% 18035 12-03-20
331 SpinDashMaster 0.5% 18035 12-03-20
333 Klaus 0.5% 18037 12-03-20
333 SilverK 0.5% 18037 12-03-20
335 BioShadow 0.5% 18043 12-03-20
336 Videogamer123 0.5% 18049 12-03-20
337 IcKY 0.5% 18052 12-03-20
338 oTaiIilLsS 0.4% 18059 12-03-20
339 isaihtb11 0.4% 18062 12-03-20
340 OhNoes! 0.4% 18064 12-03-20
341 Mad Andy 0.4% 18066 12-03-20
342 S-MS32X-S 0.4% 18067 12-03-20
342 zaktu40 0.4% 18067 12-03-20
344 gaara1234 0.4% 18070 12-03-20
345 gamed00d 0.3% 18075 12-03-20
346 Mister_Slick 0.3% 18080 12-03-20
347 Sonic06Fan 0.3% 18083 12-03-20
348 Rush Hero 0.3% 18086 12-03-20
349 ChaosNexuss 0.3% 18087 12-03-20
350 SonicMega167 0.2% 18092 12-03-20
351 Iwannabelink 0.2% 18095 12-03-20
351 sonknuck23 0.2% 18095 12-03-20
353 DanielTheFalcon 0.2% 18104 12-03-20
353 gamer1245 0.2% 18104 12-03-20
355 Burningskull123 0.1% 18111 12-03-20
356 Sonicontherun 0.1% 18122 12-03-20
357 Lil_Dude 0.1% 18124 12-03-20
358 antiwwe 0.0% 18128 12-03-20
359 Cbwade15 0.0% 18132 12-03-20
359 Genuine Hedgehog 0.0% 18132 12-03-20
361 Tyrouble 0.0% 18136 12-03-20
362 MakoHNM 0.0% 18143 12-03-20
362 MegabombBlade 0.0% 18143 12-03-20
362 neji_hyuuga 0.0% 18143 12-03-20
362 Over 0.0% 18143 12-03-20
362 sdj6707 Player Banned 0.0% 18143 12-03-20
362 Tran Sonic Fan Player Banned 0.0% 18143 12-03-20

This page is using the New Data Table System. [FUTURE]

Game ID: 3 | Category ID: 10
Hits: 78,920 | Hits This Month: 27 | DB Calls: 21 | Mem Usage: 1.06 MB | Time: 0.04s | Printable

The Sonic Center v3.9
Copyright 2003-2011 by The Sonic Center Team.